Time;durP1;ratioP1;P1;durP2;ratioP2;P2;SDS_P1;SDS_P2;PMS_P1;PMS_P2;Temp;Humidity;BMP_temperature;BMP_pressure;BME280_temperature;BME280_humidity;BME280_pressure;Samples;Min_cycle;Max_cycle;Signal;HPM_P1;HPM_P2
2021/12/08 00:00:31;;;;;;;;;1.33;1.33;;;;;8.36;64.14;99151.19;5023958;28;45213;-73
2021/12/08 00:03:02;;;;;;;;;3.33;1.67;;;;;8.14;63.90;99126.22;5020351;28;45340;-74
2021/12/08 00:05:29;;;;;;;;;0.00;0.00;;;;;8.45;64.51;99181.16;5020430;28;45425;-74
2021/12/08 00:07:55;;;;;;;;;1.00;1.00;;;;;8.47;64.68;99176.50;5018243;28;49082;-73
2021/12/08 00:13:03;;;;;;;;;3.33;1.33;;;;;8.34;64.94;99179.66;5039832;28;45522;-75
2021/12/08 00:15:46;;;;;;;;;2.67;1.33;;;;;8.16;65.17;99153.34;5039883;28;45539;-75
2021/12/08 00:18:16;;;;;;;;;1.67;0.33;;;;;8.22;65.21;99165.09;5038430;28;46288;-74
2021/12/08 00:20:45;;;;;;;;;5.00;2.00;;;;;7.62;65.39;99081.63;5038966;28;45562;-75
2021/12/08 00:23:11;;;;;;;;;1.33;1.33;;;;;7.81;65.77;99135.19;5038296;28;45307;-74
2021/12/08 00:25:37;;;;;;;;;1.67;0.00;;;;;8.07;65.68;99170.25;5039922;28;45435;-76
2021/12/08 00:28:05;;;;;;;;;2.00;2.00;;;;;7.85;65.85;99128.56;5037828;28;47303;-77
2021/12/08 00:30:30;;;;;;;;;1.00;1.00;;;;;7.98;66.13;99131.53;5020642;28;45563;-75
2021/12/08 00:32:58;;;;;;;;;2.67;2.33;;;;;7.91;66.04;99126.06;5021155;28;45301;-75
2021/12/08 00:35:24;;;;;;;;;1.67;1.00;;;;;8.07;65.98;99156.19;5020020;28;45327;-76
2021/12/08 00:37:50;;;;;;;;;2.00;2.00;;;;;8.03;65.83;99171.56;5018820;28;45322;-75
2021/12/08 00:40:18;;;;;;;;;3.67;1.33;;;;;7.96;65.50;99146.75;5028434;28;46191;-74
2021/12/08 00:42:45;;;;;;;;;0.67;0.67;;;;;7.98;65.64;99152.69;5023100;28;45407;-73
2021/12/08 00:45:13;;;;;;;;;1.00;1.00;;;;;7.93;65.18;99157.66;5019690;28;45484;-74
2021/12/08 00:47:39;;;;;;;;;0.33;0.33;;;;;7.91;65.43;99164.94;5019370;28;45511;-74
2021/12/08 00:50:08;;;;;;;;;4.33;2.00;;;;;7.37;64.97;99074.66;5032808;28;45416;-73
2021/12/08 00:52:34;;;;;;;;;2.00;0.33;;;;;7.38;65.42;99097.47;5039156;28;45402;-74
2021/12/08 00:55:01;;;;;;;;;0.67;0.67;;;;;7.92;65.12;99187.75;5038114;28;45443;-75
2021/12/08 00:57:27;;;;;;;;;0.00;0.00;;;;;7.97;64.78;99193.38;5036878;28;46918;-73
2021/12/08 00:59:52;;;;;;;;;0.67;0.67;;;;;7.95;64.45;99205.94;5037135;28;45292;-74
2021/12/08 01:02:18;;;;;;;;;0.00;0.00;;;;;7.78;64.80;99169.88;5038604;28;45365;-75
2021/12/08 01:04:44;;;;;;;;;0.33;0.00;;;;;7.79;64.56;99187.41;5038955;28;45528;-75
2021/12/08 01:07:10;;;;;;;;;1.67;1.00;;;;;7.90;64.33;99208.28;5036378;28;48693;-74
2021/12/08 01:09:36;;;;;;;;;0.33;0.33;;;;;7.84;64.83;99208.94;5036506;28;45815;-74
2021/12/08 01:12:02;;;;;;;;;1.00;1.00;;;;;7.78;64.82;99205.09;5037280;28;45281;-73
2021/12/08 01:14:31;;;;;;;;;3.67;0.67;;;;;7.04;64.19;99080.91;5055041;28;45586;-73
2021/12/08 01:16:57;;;;;;;;;1.00;1.00;;;;;7.62;64.67;99171.56;5037187;28;46701;-74
2021/12/08 01:19:22;;;;;;;;;0.00;0.00;;;;;7.49;64.29;99160.63;5038460;28;45597;-75
2021/12/08 01:21:48;;;;;;;;;2.67;0.00;;;;;7.58;64.48;99188.72;5037169;28;45349;-75
2021/12/08 01:24:14;;;;;;;;;2.33;0.33;;;;;7.51;64.55;99174.50;5038693;28;45459;-76
2021/12/08 01:26:39;;;;;;;;;2.00;1.00;;;;;7.67;64.22;99183.44;5036481;28;45665;-73
2021/12/08 01:29:07;;;;;;;;;0.00;0.00;;;;;7.51;63.86;99156.00;5038345;28;45514;-73
2021/12/08 01:31:32;;;;;;;;;0.00;0.00;;;;;7.63;64.50;99161.81;5038447;28;45556;-74
2021/12/08 01:33:57;;;;;;;;;1.00;1.00;;;;;7.60;64.24;99165.56;5037173;28;45653;-75
2021/12/08 01:36:23;;;;;;;;;0.67;0.00;;;;;7.43;64.39;99142.75;5024984;28;47276;-74
2021/12/08 01:38:48;;;;;;;;;0.33;0.00;;;;;7.41;64.66;99144.75;5016893;28;45374;-73
2021/12/08 01:41:14;;;;;;;;;0.33;0.00;;;;;7.49;64.53;99179.13;5018636;28;45264;-74
2021/12/08 01:43:43;;;;;;;;;0.00;0.00;;;;;7.16;64.29;99135.09;5017030;28;45631;-75
2021/12/08 01:46:13;;;;;;;;;1.00;1.00;;;;;7.43;64.47;99173.66;5016908;28;47094;-76
2021/12/08 01:48:41;;;;;;;;;1.00;1.00;;;;;7.33;65.18;99171.16;5016231;28;46032;-73
2021/12/08 01:51:18;;;;;;;;;0.67;0.00;;;;;7.30;65.18;99190.81;5016143;28;45391;-74
2021/12/08 01:53:49;;;;;;;;;0.67;0.67;;;;;6.94;65.67;99163.75;5017027;28;45600;-75
2021/12/08 01:56:15;;;;;;;;;0.00;0.00;;;;;7.34;65.00;99217.75;5024905;28;47578;-74
2021/12/08 01:58:41;;;;;;;;;0.33;0.33;;;;;6.61;66.08;99106.53;5038407;28;45494;-73
2021/12/08 02:01:10;;;;;;;;;2.00;0.00;;;;;7.13;65.51;99191.75;5038380;28;45217;-76
2021/12/08 02:03:36;;;;;;;;;1.00;1.00;;;;;7.30;65.74;99221.72;5038243;28;45177;-74
2021/12/08 02:06:03;;;;;;;;;1.67;1.67;;;;;7.14;65.98;99211.91;5037380;28;45453;-75
2021/12/08 02:08:29;;;;;;;;;0.67;0.33;;;;;7.19;66.39;99222.81;5023574;28;45586;-74
2021/12/08 02:10:55;;;;;;;;;3.33;1.00;;;;;7.13;66.68;99235.84;5029525;28;45339;-74
2021/12/08 02:13:20;;;;;;;;;0.00;0.00;;;;;6.95;67.17;99218.25;5036878;28;45645;-73
2021/12/08 02:15:47;;;;;;;;;1.33;1.00;;;;;7.08;67.42;99232.84;5037297;28;46457;-75
2021/12/08 02:18:15;;;;;;;;;1.00;1.00;;;;;7.05;66.73;99249.03;5037584;28;45301;-73
2021/12/08 02:20:43;;;;;;;;;1.67;0.00;;;;;6.95;67.65;99247.31;5037638;28;45474;-76
2021/12/08 02:23:09;;;;;;;;;1.00;1.00;;;;;7.04;67.96;99273.78;5037662;28;45296;-73
2021/12/08 02:25:35;;;;;;;;;1.33;0.00;;;;;6.39;67.32;99163.31;5030696;28;45539;-74
2021/12/08 02:28:02;;;;;;;;;2.33;1.00;;;;;6.76;67.89;99229.06;5016047;28;45775;-74
2021/12/08 02:47:03;;;;;;;;;1.00;1.00;;;;;6.92;67.56;99266.13;5035372;28;45526;-75
2021/12/08 02:49:29;;;;;;;;;0.00;0.00;;;;;6.97;67.69;99279.69;5035661;28;46051;-74
2021/12/08 02:51:55;;;;;;;;;1.67;1.00;;;;;6.85;66.84;99251.06;5037394;28;45292;-74
2021/12/08 02:54:21;;;;;;;;;2.33;1.00;;;;;6.81;66.89;99247.91;5037220;28;45549;-76
2021/12/08 02:56:47;;;;;;;;;1.33;0.00;;;;;6.86;66.80;99274.69;5022462;28;45625;-74
2021/12/08 02:59:13;;;;;;;;;1.00;0.00;;;;;6.91;66.79;99288.25;5018177;28;45616;-73
2021/12/08 03:01:39;;;;;;;;;1.00;1.00;;;;;6.89;66.70;99274.38;5015953;28;45544;-74
2021/12/08 03:04:06;;;;;;;;;3.00;2.00;;;;;6.85;66.86;99261.63;5027415;28;45608;-73
2021/12/08 03:06:32;;;;;;;;;2.00;1.00;;;;;6.49;66.64;99194.91;5036537;28;45546;-74
2021/12/08 03:08:58;;;;;;;;;1.00;1.00;;;;;6.93;66.77;99257.22;5035453;28;45774;-73
2021/12/08 03:11:24;;;;;;;;;0.00;0.00;;;;;6.74;66.66;99228.38;5037279;28;45500;-73
2021/12/08 03:14:02;;;;;;;;;2.00;0.00;;;;;6.91;66.71;99256.53;5035737;28;45541;-74
2021/12/08 03:16:28;;;;;;;;;0.67;0.67;;;;;6.94;66.18;99256.22;5021973;28;46173;-74
2021/12/08 03:18:54;;;;;;;;;3.00;0.00;;;;;6.70;66.66;99214.66;5015592;28;45500;-74
2021/12/08 03:21:26;;;;;;;;;1.00;0.00;;;;;6.67;66.83;99237.94;5019450;28;45521;-72
2021/12/08 03:24:29;;;;;;;;;2.33;0.00;;;;;6.80;67.03;99248.88;5018055;28;45526;-74
2021/12/08 03:27:05;;;;;;;;;0.67;0.67;;;;;6.76;67.05;99238.78;5031176;28;46034;-75
2021/12/08 03:29:59;;;;;;;;;2.00;0.33;;;;;6.51;66.21;99199.03;5036414;28;45472;-74
2021/12/08 03:32:33;;;;;;;;;0.00;0.00;;;;;6.70;66.48;99214.66;5036545;28;45435;-75
2021/12/08 03:34:59;;;;;;;;;2.00;1.00;;;;;6.62;66.66;99196.16;5034423;28;45419;-72
2021/12/08 03:37:30;;;;;;;;;0.00;0.00;;;;;6.71;66.67;99215.50;5036485;28;46101;-74
2021/12/08 03:39:58;;;;;;;;;2.00;0.00;;;;;6.77;66.77;99225.41;5051709;28;45464;-73
2021/12/08 03:42:27;;;;;;;;;1.33;0.67;;;;;6.86;66.87;99224.50;5035322;28;45427;-75
2021/12/08 03:44:56;;;;;;;;;0.00;0.00;;;;;6.81;67.21;99233.84;5032963;28;45248;-75
2021/12/08 03:47:27;;;;;;;;;1.33;1.00;;;;;6.81;66.96;99224.16;5015019;28;47786;-74
2021/12/08 03:49:54;;;;;;;;;1.00;1.00;;;;;6.72;66.88;99206.59;5015068;28;45587;-74
2021/12/08 03:52:20;;;;;;;;;0.00;0.00;;;;;6.69;66.71;99197.16;5016511;28;45488;-73
2021/12/08 03:54:45;;;;;;;;;1.00;0.00;;;;;6.87;66.85;99225.31;5016422;28;45497;-74
2021/12/08 03:57:11;;;;;;;;;1.00;0.00;;;;;6.79;66.37;99201.50;5016170;28;45479;-73
2021/12/08 03:59:37;;;;;;;;;1.00;0.00;;;;;6.85;66.79;99228.13;5016129;28;45494;-73
2021/12/08 04:02:03;;;;;;;;;0.00;0.00;;;;;6.77;66.18;99227.25;5030994;28;45321;-73
2021/12/08 04:04:30;;;;;;;;;2.00;0.00;;;;;6.80;67.13;99243.59;5022288;28;45504;-73
2021/12/08 04:06:57;;;;;;;;;2.00;1.00;;;;;6.78;67.15;99242.94;5034664;28;47906;-73
2021/12/08 04:09:30;;;;;;;;;2.00;0.67;;;;;6.71;66.98;99210.22;5036154;28;45328;-74
2021/12/08 04:11:56;;;;;;;;;1.00;0.00;;;;;6.75;66.63;99211.53;5036280;28;45479;-74
2021/12/08 04:14:26;;;;;;;;;0.33;0.00;;;;;6.80;66.25;99230.38;5037917;28;45485;-75
2021/12/08 04:17:03;;;;;;;;;1.00;1.00;;;;;6.75;67.10;99227.41;5055047;28;46484;-74
2021/12/08 04:19:29;;;;;;;;;3.00;0.00;;;;;6.31;66.92;99163.28;5039670;28;45467;-75
2021/12/08 04:21:58;;;;;;;;;0.00;0.00;;;;;6.72;66.59;99211.88;5055029;28;45349;-75
2021/12/08 04:24:24;;;;;;;;;1.00;1.00;;;;;6.75;66.74;99226.56;5038873;28;45305;-72
2021/12/08 04:26:58;;;;;;;;;2.00;1.00;;;;;6.70;66.80;99224.41;5039303;28;46137;-74
2021/12/08 04:29:28;;;;;;;;;2.00;1.00;;;;;6.67;67.17;99214.16;5038254;28;45482;-73
2021/12/08 04:31:54;;;;;;;;;3.67;1.00;;;;;6.81;67.10;99237.34;5042461;28;45384;-74
2021/12/08 04:34:25;;;;;;;;;3.00;1.00;;;;;6.69;66.43;99228.03;5029394;28;45223;-74
2021/12/08 04:36:54;;;;;;;;;1.00;1.00;;;;;6.81;66.80;99234.72;5018211;28;47978;-75
2021/12/08 04:39:47;;;;;;;;;0.00;0.00;;;;;6.85;66.56;99236.06;5019305;28;45467;-73
2021/12/08 04:42:18;;;;;;;;;0.00;0.00;;;;;6.78;66.70;99236.81;5017861;28;45349;-74
2021/12/08 04:44:51;;;;;;;;;2.33;1.67;;;;;6.71;67.50;99213.69;5018979;28;45283;-73
2021/12/08 05:06:22;;;;;;;;;1.67;1.00;;;;;6.57;67.09;99230.09;5038465;28;45387;-73
2021/12/08 05:08:51;;;;;;;;;1.33;1.00;;;;;6.55;67.14;99249.72;5039605;28;45631;-73
2021/12/08 05:11:27;;;;;;;;;2.00;1.00;;;;;6.79;67.49;99276.28;5054335;28;45352;-74
2021/12/08 05:13:59;;;;;;;;;2.33;0.33;;;;;6.76;67.16;99275.75;5053762;28;45340;-75
2021/12/08 05:16:27;;;;;;;;;0.33;0.33;;;;;6.71;67.99;99274.41;5038712;28;45261;-75
2021/12/08 05:18:55;;;;;;;;;1.00;1.00;;;;;6.78;67.22;99287.81;5037931;28;46157;-75
2021/12/08 05:21:31;;;;;;;;;1.00;1.00;;;;;6.76;66.89;99273.94;5038420;28;45506;-74
2021/12/08 05:24:07;;;;;;;;;1.00;1.00;;;;;6.67;67.53;99264.34;5037148;28;45605;-75
2021/12/08 05:26:36;;;;;;;;;4.33;0.67;;;;;6.68;67.87;99281.84;5037172;28;45541;-75
2021/12/08 05:29:08;;;;;;;;;2.33;1.00;;;;;6.62;68.13;99293.03;5037813;28;46323;-74
2021/12/08 05:31:34;;;;;;;;;7.33;2.00;;;;;6.04;68.06;99202.00;5037875;28;45206;-74
2021/12/08 05:33:59;;;;;;;;;1.67;1.67;;;;;6.14;68.50;99223.03;5036096;28;45435;-76
2021/12/08 05:36:26;;;;;;;;;2.67;1.00;;;;;6.60;68.18;99302.88;5038129;28;45437;-75
2021/12/08 05:38:55;;;;;;;;;0.00;0.00;;;;;6.66;68.16;99310.22;5036560;28;47268;-76
2021/12/08 05:41:34;;;;;;;;;3.33;2.00;;;;;6.61;67.88;99291.38;5037340;28;45596;-75
2021/12/08 05:44:01;;;;;;;;;2.00;1.33;;;;;6.66;67.74;99311.03;5032849;28;45352;-74
2021/12/08 05:46:30;;;;;;;;;3.33;3.00;;;;;6.68;67.45;99310.88;5037155;28;45529;-74
2021/12/08 05:48:55;;;;;;;;;5.00;1.00;;;;;6.59;67.78;99306.50;5037744;28;45826;-73
2021/12/08 05:51:26;;;;;;;;;5.67;3.67;;;;;6.07;67.92;99203.50;5036485;28;45512;-75
2021/12/08 05:53:56;;;;;;;;;2.00;1.00;;;;;6.38;67.68;99257.50;5051129;28;45275;-74
2021/12/08 05:56:22;;;;;;;;;1.00;1.00;;;;;6.48;67.90;99293.56;5018216;28;45176;-74
2021/12/08 05:58:53;;;;;;;;;2.67;2.00;;;;;4.76;68.36;99009.09;5017595;28;45545;-74
2021/12/08 06:01:31;;;;;;;;;1.00;1.00;;;;;6.51;68.09;99295.91;5017900;28;45627;-73
2021/12/08 06:03:59;;;;;;;;;4.00;2.00;;;;;5.90;68.30;99209.63;5023687;28;45450;-73
2021/12/08 06:06:26;;;;;;;;;2.33;1.33;;;;;6.34;67.77;99281.72;5037629;28;45246;-73
2021/12/08 06:08:52;;;;;;;;;1.67;1.67;;;;;6.20;68.23;99253.25;5037804;28;47895;-76
2021/12/08 06:11:19;;;;;;;;;2.00;0.67;;;;;6.36;68.47;99282.41;5037059;28;45323;-73
2021/12/08 06:13:46;;;;;;;;;2.33;2.33;;;;;6.23;68.43;99264.34;5035691;28;45597;-74
2021/12/08 06:16:13;;;;;;;;;3.67;3.67;;;;;6.29;68.31;99290.13;5030711;28;45656;-75
2021/12/08 06:18:40;;;;;;;;;3.00;2.33;;;;;6.32;68.61;99287.16;5032399;28;48072;-75
2021/12/08 06:21:12;;;;;;;;;1.33;1.33;;;;;6.44;68.43;99282.50;5035664;28;45491;-74
2021/12/08 06:23:51;;;;;;;;;;;;;;;;;;;;;
2021/12/08 06:26:19;;;;;;;;;3.00;1.00;;;;;6.31;67.83;99277.59;5035990;28;63226;-74
2021/12/08 06:28:46;;;;;;;;;1.33;1.00;;;;;5.97;68.58;99237.88;5038239;28;47105;-73
2021/12/08 06:31:16;;;;;;;;;3.00;1.67;;;;;6.10;69.06;99296.38;5035525;28;45348;-75
2021/12/08 06:33:42;;;;;;;;;2.00;2.00;;;;;6.16;69.54;99310.78;5037768;28;45478;-73
2021/12/08 06:36:16;;;;;;;;;3.00;3.00;;;;;6.09;68.80;99307.91;5035295;28;45444;-76
2021/12/08 06:38:43;;;;;;;;;5.00;1.00;;;;;6.17;69.04;99320.34;5037168;28;46358;-74
2021/12/08 06:41:16;;;;;;;;;0.00;0.00;;;;;6.14;69.28;99317.19;5035426;28;46104;-73
2021/12/08 06:43:48;;;;;;;;;1.00;1.00;;;;;6.16;68.92;99318.69;5031755;28;45501;-72
2021/12/08 06:46:14;;;;;;;;;2.00;0.67;;;;;5.48;68.85;99216.28;5018018;28;45424;-73
2021/12/08 06:48:44;;;;;;;;;2.00;2.00;;;;;5.89;69.03;99287.06;5016464;28;45826;-73
2021/12/08 06:51:43;;;;;;;;;4.33;3.00;;;;;6.11;69.54;99326.22;5021512;28;45398;-74
2021/12/08 06:54:24;;;;;;;;;3.00;3.00;;;;;6.12;69.58;99312.06;5043178;28;45343;-72
2021/12/08 06:56:55;;;;;;;;;1.00;1.00;;;;;5.52;69.04;99229.16;5036077;28;45435;-72
2021/12/08 06:59:25;;;;;;;;;5.00;2.00;;;;;5.93;68.75;99302.47;5036706;28;45821;-74
2021/12/08 07:02:05;;;;;;;;;2.67;2.00;;;;;5.52;69.13;99231.81;5032333;28;45521;-75
2021/12/08 07:04:56;;;;;;;;;3.00;1.00;;;;;5.81;69.95;99287.84;5015787;28;45571;-74
2021/12/08 07:07:26;;;;;;;;;1.67;0.67;;;;;5.94;69.39;99303.31;5015989;28;45199;-74
2021/12/08 07:09:57;;;;;;;;;5.00;2.00;;;;;6.07;69.60;99312.50;5015332;28;46610;-75
2021/12/08 07:12:34;;;;;;;;;2.00;1.00;;;;;6.12;69.09;99313.88;5032103;28;45420;-77
2021/12/08 07:15:16;;;;;;;;;1.67;1.67;;;;;6.11;69.32;99307.75;5036040;28;45307;-81
2021/12/08 07:17:50;;;;;;;;;1.00;1.00;;;;;5.94;68.74;99254.00;5035914;28;45470;-79
2021/12/08 07:22:58;;;;;;;;;1.67;1.67;;;;;6.43;68.91;99336.28;5036494;28;45209;-76
2021/12/08 07:25:26;;;;;;;;;4.00;3.00;;;;;6.38;68.13;99328.78;5034052;28;45566;-76
2021/12/08 07:27:52;;;;;;;;;1.00;1.00;;;;;6.33;68.05;99328.41;5018471;28;45590;-78
2021/12/08 07:30:26;;;;;;;;;2.00;2.00;;;;;6.43;68.81;99346.00;5037008;28;47946;-76
2021/12/08 07:32:52;;;;;;;;;2.67;2.00;;;;;6.47;68.71;99356.09;5022082;28;45510;-77
2021/12/08 07:35:35;;;;;;;;;6.33;2.00;;;;;6.25;67.83;99309.88;5025505;28;45909;-75
2021/12/08 07:38:00;;;;;;;;;5.00;4.00;;;;;6.55;67.81;99342.13;5022969;28;45367;-78
2021/12/08 07:40:36;;;;;;;;;1.67;1.67;;;;;6.48;68.21;99330.53;5026065;28;48225;-77
2021/12/08 07:43:06;;;;;;;;;4.33;2.33;;;;;6.25;68.13;99312.53;5024471;28;45490;-76
2021/12/08 07:45:37;;;;;;;;;3.00;2.00;;;;;6.13;68.44;99297.88;5024394;28;45561;-77
2021/12/08 07:48:07;;;;;;;;;16.67;14.00;;;;;6.51;68.72;99367.19;5032140;28;45253;-77
2021/12/08 07:50:44;;;;;;;;;10.33;7.33;;;;;6.28;68.95;99348.34;5019673;28;48663;-78
2021/12/08 07:53:11;;;;;;;;;2.00;2.00;;;;;6.20;68.53;99337.69;5019167;28;45391;-77
2021/12/08 07:55:44;;;;;;;;;3.00;3.00;;;;;6.21;69.22;99340.19;5029950;28;45479;-77
2021/12/08 07:58:11;;;;;;;;;2.00;2.00;;;;;5.65;69.12;99246.28;5020045;28;45636;-76
2021/12/08 08:00:44;;;;;;;;;5.67;2.67;;;;;6.03;69.12;99315.63;5030232;28;46741;-79
2021/12/08 08:03:13;;;;;;;;;1.67;1.00;;;;;5.48;69.55;99233.91;5036918;28;45823;-77
2021/12/08 08:05:39;;;;;;;;;3.00;1.00;;;;;6.09;69.10;99341.38;5034930;28;45486;-80
2021/12/08 08:08:25;;;;;;;;;2.67;2.00;;;;;5.71;69.08;99258.03;5029491;28;45281;-76
2021/12/08 08:11:10;;;;;;;;;5.67;2.00;;;;;5.71;68.86;99252.78;5018471;28;45942;-76
2021/12/08 08:13:36;;;;;;;;;2.00;2.00;;;;;5.98;69.11;99300.22;5027309;28;45487;-78
2021/12/08 08:16:09;;;;;;;;;2.33;1.33;;;;;5.75;69.72;99264.66;5031298;28;45437;-76
2021/12/08 08:18:40;;;;;;;;;3.67;1.33;;;;;6.22;68.77;99351.59;5026857;28;45405;-77
2021/12/08 08:21:12;;;;;;;;;6.00;5.00;;;;;5.84;69.00;99284.06;5039932;28;46223;-77
2021/12/08 08:23:38;;;;;;;;;1.00;1.00;;;;;6.19;69.94;99344.78;5041376;28;45470;-77
2021/12/08 08:26:06;;;;;;;;;3.67;2.00;;;;;6.21;69.50;99345.47;5039456;28;45570;-76
2021/12/08 08:28:32;;;;;;;;;2.67;2.67;;;;;6.27;68.61;99354.59;5020716;28;45422;-77
2021/12/08 08:31:10;;;;;;;;;4.33;1.00;;;;;6.05;69.29;99298.66;5020929;28;45303;-77
2021/12/08 08:33:40;;;;;;;;;2.00;2.00;;;;;6.21;68.56;99321.72;5024819;28;45538;-79
2021/12/08 08:36:23;;;;;;;;;2.00;1.00;;;;;6.30;68.46;99339.28;5024531;28;45484;-77
2021/12/08 08:39:09;;;;;;;;;2.00;2.00;;;;;6.43;67.83;99315.16;5034561;28;45747;-76
2021/12/08 08:41:53;;;;;;;;;1.00;1.00;;;;;6.92;67.34;99371.81;5035408;28;46876;-77
2021/12/08 08:44:33;;;;;;;;;2.67;2.00;;;;;7.01;66.86;99381.47;5039928;28;45415;-79
2021/12/08 08:47:07;;;;;;;;;2.33;2.33;;;;;6.98;66.83;99344.75;5033915;28;45514;-81
2021/12/08 08:49:38;;;;;;;;;2.00;2.00;;;;;7.35;65.88;99377.19;5020500;28;45283;-75
2021/12/08 08:52:25;;;;;;;;;3.67;3.00;;;;;7.44;66.14;99369.16;5032378;28;46124;-77
2021/12/08 08:54:53;;;;;;;;;3.33;2.00;;;;;7.30;65.34;99322.16;5053690;28;45549;-76
2021/12/08 08:57:26;;;;;;;;;3.00;2.00;;;;;7.43;64.64;99325.22;5037869;28;45375;-75
2021/12/08 08:59:58;;;;;;;;;7.33;2.00;;;;;7.72;64.10;99335.38;5037057;28;45268;-77
2021/12/08 09:02:38;;;;;;;;;1.00;1.00;;;;;8.03;63.94;99367.41;5036742;28;46167;-73
2021/12/08 09:05:16;;;;;;;;;1.33;1.33;;;;;8.06;62.92;99356.50;5038587;28;45217;-74
2021/12/08 09:07:46;;;;;;;;;2.00;2.00;;;;;7.92;62.82;99339.41;5038153;28;45316;-76
2021/12/08 09:10:23;;;;;;;;;1.67;1.67;;;;;8.27;62.73;99376.41;5038535;28;45855;-74
2021/12/08 09:12:55;;;;;;;;;2.33;1.33;;;;;8.22;62.58;99367.13;5038045;28;45703;-75
2021/12/08 09:15:30;;;;;;;;;1.67;1.67;;;;;8.26;61.83;99380.03;5037954;28;45407;-77
2021/12/08 09:18:02;;;;;;;;;2.67;2.00;;;;;7.92;61.55;99323.53;5037818;28;45502;-75
2021/12/08 09:20:42;;;;;;;;;2.33;1.00;;;;;8.47;61.56;99396.34;5038788;28;45263;-75
2021/12/08 09:23:24;;;;;;;;;1.67;1.00;;;;;8.43;61.39;99411.72;5036080;28;47746;-75
2021/12/08 09:25:57;;;;;;;;;2.67;2.00;;;;;8.47;61.16;99401.63;5036839;28;45411;-76
2021/12/08 09:28:33;;;;;;;;;15.00;13.00;;;;;8.22;60.92;99372.44;5018827;28;45377;-76
2021/12/08 09:31:37;;;;;;;;;3.00;2.00;;;;;8.15;60.94;99397.88;5017578;28;45367;-77
2021/12/08 09:34:09;;;;;;;;;1.00;1.00;;;;;8.05;61.04;99397.19;5020663;28;46387;-75
2021/12/08 09:36:42;;;;;;;;;2.00;1.00;;;;;7.22;61.36;99271.91;5028484;28;45248;-75
2021/12/08 09:39:25;;;;;;;;;3.33;3.33;;;;;8.12;61.73;99424.69;5036808;28;45546;-76
2021/12/08 09:42:03;;;;;;;;;2.00;1.00;;;;;7.67;61.35;99342.16;5037262;28;45319;-77
2021/12/08 09:44:33;;;;;;;;;2.33;2.00;;;;;8.08;61.80;99423.34;5036600;28;47527;-76
2021/12/08 09:46:59;;;;;;;;;2.67;1.67;;;;;7.90;62.14;99388.22;5037049;28;45292;-78
2021/12/08 09:49:27;;;;;;;;;4.00;2.33;;;;;7.00;61.82;99263.50;5033477;28;45488;-75
2021/12/08 09:51:56;;;;;;;;;3.00;1.00;;;;;8.10;62.25;99433.78;5035896;28;45479;-75
2021/12/08 09:54:22;;;;;;;;;3.00;3.00;;;;;8.05;61.77;99428.97;5031233;28;47175;-75
2021/12/08 09:56:50;;;;;;;;;1.67;1.33;;;;;8.00;62.21;99425.13;5017152;28;45593;-75
2021/12/08 09:59:22;;;;;;;;;1.67;1.67;;;;;7.99;61.70;99412.88;5017255;28;45368;-75
2021/12/08 10:01:49;;;;;;;;;3.00;3.00;;;;;7.98;62.40;99405.91;5028788;28;45559;-75
2021/12/08 10:04:15;;;;;;;;;3.00;1.33;;;;;7.90;62.08;99377.63;5017310;28;47292;-76
2021/12/08 10:06:49;;;;;;;;;4.00;4.00;;;;;7.77;61.46;99358.72;5016546;28;45463;-75
2021/12/08 10:09:16;;;;;;;;;4.00;2.00;;;;;7.99;61.62;99397.81;5033662;28;45321;-75
2021/12/08 10:11:42;;;;;;;;;2.33;2.00;;;;;7.97;61.61;99381.28;5024134;28;45603;-75
2021/12/08 10:14:08;;;;;;;;;4.00;2.33;;;;;8.14;61.70;99404.16;5024789;28;45576;-76
2021/12/08 10:16:52;;;;;;;;;6.33;3.67;;;;;8.02;61.89;99368.41;5031402;28;45518;-76
2021/12/08 10:19:28;;;;;;;;;2.67;2.67;;;;;8.04;61.73;99362.97;5029575;28;45536;-77
2021/12/08 10:21:54;;;;;;;;;3.67;3.67;;;;;7.71;61.68;99285.28;5034563;28;45451;-74
2021/12/08 10:24:29;;;;;;;;;3.00;3.00;;;;;8.34;61.23;99386.19;5035829;28;45408;-79
2021/12/08 10:27:14;;;;;;;;;4.67;4.00;;;;;8.00;61.33;99333.31;5031907;28;45662;-76
2021/12/08 10:29:40;;;;;;;;;2.00;1.33;;;;;8.14;61.13;99369.75;5031228;28;45485;-78
2021/12/08 10:32:07;;;;;;;;;3.33;2.00;;;;;8.12;60.69;99361.13;5018381;28;45498;-77
2021/12/08 10:34:46;;;;;;;;;6.33;5.00;;;;;8.30;60.81;99384.03;5018204;28;46842;-75
2021/12/08 10:37:19;;;;;;;;;4.00;2.67;;;;;8.48;60.60;99408.59;5019372;28;45405;-75
2021/12/08 10:39:48;;;;;;;;;4.00;2.00;;;;;8.51;60.61;99411.72;5016935;28;45360;-76
2021/12/08 10:42:26;;;;;;;;;4.00;4.00;;;;;8.58;60.37;99403.94;5018263;28;45211;-73
2021/12/08 10:45:12;;;;;;;;;2.67;2.00;;;;;8.58;59.57;99401.28;5021734;28;46436;-76
2021/12/08 10:47:41;;;;;;;;;3.00;2.00;;;;;8.60;59.54;99407.25;5038562;28;45495;-75
2021/12/08 10:55:59;;;;;;;;;1.00;1.00;;;;;8.41;59.25;99349.28;5018368;28;45874;-78
2021/12/08 10:58:28;;;;;;;;;1.00;1.00;;;;;8.80;59.01;99392.69;5026163;28;45618;-78
2021/12/08 11:00:56;;;;;;;;;2.33;2.33;;;;;8.77;59.33;99381.59;5029439;28;45604;-82
2021/12/08 11:03:23;;;;;;;;;2.00;2.00;;;;;8.87;57.93;99392.06;5018553;28;45262;-77
2021/12/08 11:05:58;;;;;;;;;2.00;1.00;;;;;8.83;58.22;99387.09;5024725;28;47202;-81
2021/12/08 11:08:30;;;;;;;;;3.67;0.67;;;;;8.93;57.87;99386.09;5046434;28;45603;-78
2021/12/08 11:11:08;;;;;;;;;1.00;1.00;;;;;8.95;57.24;99400.81;5028019;28;45478;-79
2021/12/08 11:13:35;;;;;;;;;1.00;1.00;;;;;8.90;57.39;99376.66;5035875;28;45929;-79
2021/12/08 11:16:12;;;;;;;;;1.67;1.67;;;;;9.06;57.52;99403.16;5035405;28;48405;-80
2021/12/08 11:18:41;;;;;;;;;2.67;1.67;;;;;8.82;57.31;99363.41;5022897;28;45248;-79
2021/12/08 11:21:20;;;;;;;;;1.67;1.00;;;;;8.99;57.68;99401.31;5023018;28;45499;-79
2021/12/08 11:23:49;;;;;;;;;4.00;3.00;;;;;8.67;57.83;99339.38;5036418;28;46115;-78
2021/12/08 11:26:27;;;;;;;;;4.00;2.33;;;;;8.93;57.64;99396.69;5043624;28;47498;-78
2021/12/08 11:29:07;;;;;;;;;4.00;3.00;;;;;8.07;58.16;99247.00;5045174;28;45453;-80
2021/12/08 11:32:03;;;;;;;;;8.33;5.00;;;;;9.05;57.69;99390.06;5043568;28;45365;-78
2021/12/08 11:34:38;;;;;;;;;2.00;2.00;;;;;7.80;57.32;99189.06;5043383;28;45415;-80
2021/12/08 11:37:13;;;;;;;;;3.33;3.33;;;;;7.15;57.15;99085.88;5045413;28;45397;-81
2021/12/08 11:39:42;;;;;;;;;2.00;0.33;;;;;8.48;57.57;99307.94;5045366;28;45359;-79
2021/12/08 11:42:16;;;;;;;;;2.00;1.67;;;;;8.95;57.20;99390.22;5045305;28;45357;-78
2021/12/08 11:44:44;;;;;;;;;2.00;2.00;;;;;8.72;57.78;99368.84;5044385;28;45287;-80
2021/12/08 11:47:15;;;;;;;;;2.67;2.67;;;;;8.77;57.52;99369.19;5043243;28;47560;-81
2021/12/08 11:49:44;;;;;;;;;6.00;3.33;;;;;8.91;57.79;99388.06;5063100;28;45330;-79
2021/12/08 11:52:19;;;;;;;;;1.67;1.00;;;;;9.01;57.63;99397.53;5035261;28;45562;-79
2021/12/08 11:54:52;;;;;;;;;2.00;2.00;;;;;8.99;57.63;99396.84;5024481;28;45245;-79
2021/12/08 11:57:40;;;;;;;;;1.33;1.33;;;;;8.23;57.41;99297.31;5024584;28;45408;-79
2021/12/08 12:00:05;;;;;;;;;1.33;1.33;;;;;8.99;57.46;99403.97;5023934;28;45245;-81
2021/12/08 12:02:44;;;;;;;;;2.33;2.33;;;;;8.94;57.33;99385.91;5026209;28;45441;-79
2021/12/08 12:05:17;;;;;;;;;2.00;1.00;;;;;9.07;57.50;99390.72;5029470;28;45459;-83
2021/12/08 12:07:43;;;;;;;;;2.00;2.00;;;;;9.08;57.66;99398.50;5026729;28;47780;-77
2021/12/08 12:10:12;;;;;;;;;4.00;1.67;;;;;9.08;57.41;99416.22;5025415;28;45633;-80
2021/12/08 12:12:39;;;;;;;;;2.00;2.00;;;;;8.58;57.53;99319.19;5031222;28;45254;-79
2021/12/08 12:15:10;;;;;;;;;0.67;0.67;;;;;9.20;57.11;99414.03;5026218;28;45273;-80
2021/12/08 12:17:36;;;;;;;;;1.67;1.67;;;;;9.24;57.22;99413.56;5024838;28;46587;-79
2021/12/08 12:20:12;;;;;;;;;2.00;1.00;;;;;9.21;57.52;99403.31;5024922;28;45310;-79
2021/12/08 12:23:15;;;;;;;;;3.33;2.00;;;;;9.37;57.12;99411.22;5023456;28;45249;-79
2021/12/08 12:25:46;;;;;;;;;4.67;3.00;;;;;9.52;57.46;99410.53;5024724;28;45388;-80
2021/12/08 12:28:31;;;;;;;;;1.33;1.33;;;;;9.48;57.21;99394.13;5023042;28;46550;-79
2021/12/08 12:31:19;;;;;;;;;1.00;1.00;;;;;9.48;56.92;99418.00;5023636;28;45302;-81
2021/12/08 12:33:46;;;;;;;;;2.00;2.00;;;;;9.19;56.98;99386.72;5021564;28;45356;-79
2021/12/08 12:36:23;;;;;;;;;4.33;2.67;;;;;9.38;57.19;99423.47;5020508;28;45192;-80
2021/12/08 12:38:52;;;;;;;;;1.00;1.00;;;;;9.15;57.28;99393.34;5019144;28;47319;-80
2021/12/08 12:41:29;;;;;;;;;0.67;0.00;;;;;9.49;56.60;99445.34;5019206;28;45482;-77
2021/12/08 12:44:15;;;;;;;;;1.00;1.00;;;;;9.56;56.83;99456.94;5018962;28;45557;-80
2021/12/08 12:47:14;;;;;;;;;2.33;2.00;;;;;9.57;56.52;99448.81;5019267;28;45417;-78
2021/12/08 12:49:50;;;;;;;;;1.00;1.00;;;;;9.42;56.24;99421.34;5036670;28;46245;-79